»·PEaware :: SKW6508 KSAN-KLAX

SKW6508 :: KSAN-KLAX

FLIGHT INFORMATION

Flight Status: Arrived
Operator:
SkyWest Airlines
More flights by this operator :: More flights under this callsign
Pilot: Dexter G. (2667)
Aircraft: AIRBUS A320
(A320)
More flights by this aircraft type
Origin: KSAN San Diego Intl-Lindbergh
United States
Destination: KLAX Los Angeles Intl
United States
More flights between these airports :: More routes between these airports
Route: +CWARD1 SLI
File this flight plan on PilotEdge
Remarks:
Altitude:
(Current/Filed)
220ft
Speed:
(Current/Filed)
350kts
Departed: 29-Sep-17 09:33 AM
Arrived: 29-Sep-17 10:14 AM
Distance/Time
Traveled:
95nm/0:41
Distance/Time
To Go:
Arrived

Flight Plot

Page will automatically refresh every two minutes.

Flight plan parsing failed; only flown route is shown


Map Options




Map Legend


Flown Route
Filed Route
Departure Airport
Arrival Airport
Navaid (VOR, NDB)
Fix

Horizontal Profiles

Position Reports

Time Latitude Longitude Heading Altitude Ground
Speed
29-Sep-17 08:53 32.733706 -117.198990 152 29ft 0kts
29-Sep-17 08:54 32.733706 -117.198990 152 29ft 0kts
29-Sep-17 08:55 32.733706 -117.198990 152 29ft 0kts
29-Sep-17 08:56 32.733706 -117.198990 152 29ft 0kts
29-Sep-17 08:58 32.733706 -117.198990 152 29ft 0kts
29-Sep-17 08:59 32.733706 -117.198990 152 29ft 0kts
29-Sep-17 09:00 32.733706 -117.198990 152 29ft 0kts
29-Sep-17 09:01 32.733706 -117.198990 152 29ft 0kts
29-Sep-17 09:02 32.733706 -117.198990 152 29ft 0kts
29-Sep-17 09:03 32.733706 -117.198990 152 29ft 0kts
29-Sep-17 09:04 32.733706 -117.198990 152 29ft 0kts
29-Sep-17 09:06 32.733706 -117.198990 152 29ft 0kts
29-Sep-17 09:07 32.733706 -117.198990 152 29ft 0kts
29-Sep-17 09:08 32.733706 -117.198990 152 29ft 0kts
29-Sep-17 09:09 32.733706 -117.198990 152 29ft 0kts
29-Sep-17 09:10 32.733706 -117.198990 152 29ft 0kts
29-Sep-17 09:11 32.733706 -117.198990 152 29ft 0kts
29-Sep-17 09:12 32.733706 -117.198990 152 29ft 0kts
29-Sep-17 09:13 32.733706 -117.198990 152 29ft 0kts
29-Sep-17 09:14 32.733706 -117.198990 152 29ft 0kts
29-Sep-17 09:15 32.733706 -117.198990 152 29ft 0kts
29-Sep-17 09:16 32.733706 -117.198990 152 29ft 0kts
29-Sep-17 09:17 32.733706 -117.198990 152 29ft 0kts
29-Sep-17 09:18 32.733706 -117.198990 152 29ft 0kts
29-Sep-17 09:19 32.733706 -117.198990 152 29ft 0kts
29-Sep-17 09:20 32.733706 -117.198990 152 29ft 0kts
29-Sep-17 09:21 32.733706 -117.198990 152 29ft 0kts
29-Sep-17 09:22 32.733706 -117.198990 152 29ft 0kts
29-Sep-17 09:23 32.733706 -117.198990 152 29ft 0kts
29-Sep-17 09:24 32.733706 -117.198990 152 29ft 0kts
29-Sep-17 09:25 32.733706 -117.198990 152 29ft 0kts
29-Sep-17 09:26 32.733781 -117.199035 152 29ft 2kts
29-Sep-17 09:27 32.734258 -117.199321 152 29ft 0kts
29-Sep-17 09:28 32.734258 -117.199321 152 29ft 0kts
29-Sep-17 09:29 32.734257 -117.199321 152 29ft 0kts
29-Sep-17 09:30 32.734256 -117.199320 152 29ft 0kts
29-Sep-17 09:31 32.734256 -117.199320 152 29ft 0kts
29-Sep-17 09:32 32.734583 -117.198422 83 29ft 9kts
29-Sep-17 09:33 32.733615 -117.194218 105 29ft 21kts
29-Sep-17 09:34 32.731782 -117.186637 105 29ft 22kts
29-Sep-17 09:35 32.730193 -117.180087 105 29ft 18kts
29-Sep-17 09:36 32.729523 -117.176724 74 29ft 0kts
29-Sep-17 09:37 32.730902 -117.178706 285 29ft 57kts
29-Sep-17 09:38 32.741374 -117.219394 289 1008ft 150kts
29-Sep-17 09:39 32.767923 -117.266800 306 2448ft 224kts
29-Sep-17 09:40 32.809987 -117.334966 308 6157ft 271kts
29-Sep-17 09:41 32.857696 -117.408476 308 9790ft 291kts
29-Sep-17 09:42 32.906895 -117.484755 307 9991ft 289kts
29-Sep-17 09:43 32.955674 -117.560627 307 9991ft 289kts
29-Sep-17 09:44 33.004416 -117.636603 307 9996ft 289kts
29-Sep-17 09:45 33.053229 -117.712847 307 9999ft 288kts
29-Sep-17 09:46 33.111356 -117.777982 319 10000ft 288kts
29-Sep-17 09:47 33.172467 -117.840006 319 9998ft 287kts
29-Sep-17 09:48 33.245610 -117.874565 347 9999ft 287kts
29-Sep-17 09:49 33.323707 -117.894171 348 10000ft 287kts
29-Sep-17 09:50 33.401657 -117.915569 343 9999ft 287kts
29-Sep-17 09:51 33.477892 -117.943298 342 9190ft 287kts
29-Sep-17 09:52 33.553507 -117.970801 342 8190ft 282kts
29-Sep-17 09:53 33.628203 -117.998040 342 7188ft 279kts
29-Sep-17 09:54 33.698514 -118.023709 342 6994ft 256kts
29-Sep-17 09:55 33.767265 -118.048840 342 7000ft 266kts
29-Sep-17 09:56 33.836183 -118.062727 352 6987ft 246kts
29-Sep-17 09:57 33.903073 -118.072277 352 6261ft 235kts
29-Sep-17 09:58 33.950351 -118.094427 297 5099ft 227kts
29-Sep-17 09:59 33.956174 -118.162559 261 3923ft 226kts
29-Sep-17 10:00 33.950264 -118.234714 272 3025ft 209kts
29-Sep-17 10:01 33.952005 -118.306616 271 1647ft 212kts
29-Sep-17 10:02 33.952449 -118.373052 267 2115ft 192kts
29-Sep-17 10:03 33.950007 -118.438998 267 3000ft 196kts
29-Sep-17 10:04 33.941437 -118.502432 222 3001ft 201kts
29-Sep-17 10:05 33.885394 -118.533394 202 3366ft 228kts
29-Sep-17 10:06 33.835122 -118.521109 98 4001ft 199kts
29-Sep-17 10:07 33.840483 -118.456248 82 4003ft 194kts
29-Sep-17 10:08 33.846804 -118.391421 82 4007ft 195kts
29-Sep-17 10:09 33.853106 -118.326755 82 4003ft 195kts
29-Sep-17 10:10 33.859413 -118.262128 82 3996ft 195kts
29-Sep-17 10:11 33.865746 -118.197341 82 3995ft 195kts
29-Sep-17 10:12 33.875923 -118.135468 45 4011ft 182kts
29-Sep-17 10:13 33.916722 -118.140453 303 4015ft 186kts
29-Sep-17 10:14 33.944176 -118.192560 295 3989ft 184kts
29-Sep-17 10:15 33.950264 -118.253907 265 2779ft 182kts
29-Sep-17 10:16 33.944453 -118.313521 262 1443ft 169kts
29-Sep-17 10:17 33.939188 -118.364729 262 570ft 143kts
29-Sep-17 10:18 33.935560 -118.400800 276 140ft 34kts
29-Sep-17 10:19 33.936225 -118.404218 269 140ft 16kts
29-Sep-17 10:20 33.936699 -118.409117 349 140ft 13kts
29-Sep-17 10:21 33.937883 -118.409243 353 140ft 15kts
29-Sep-17 10:22 33.939041 -118.405431 82 140ft 13kts
29-Sep-17 10:23 33.940570 -118.403247 9 140ft 7kts
29-Sep-17 10:24 33.940762 -118.402644 83 140ft 0kts
29-Sep-17 10:25 33.940762 -118.402644 83 140ft 0kts
29-Sep-17 10:26 33.940762 -118.402644 83 140ft 0kts
29-Sep-17 10:27 33.940762 -118.402644 83 140ft 0kts
29-Sep-17 10:28 33.940762 -118.402644 83 140ft 0kts
29-Sep-17 10:29 33.940762 -118.402644 83 140ft 0kts
29-Sep-17 10:30 33.940762 -118.402644 83 140ft 0kts
29-Sep-17 10:31 33.940762 -118.402644 83 140ft 0kts
29-Sep-17 10:32 33.940762 -118.402644 83 140ft 0kts

Navigation Log

Ident Type
Flight plan parsing failed, navigation log unavailable